sensor_id;sensor_type;location;lat;lon;timestamp;temperature;humidity
12436;DHT22;6282;51.440;6.938;2022-08-21T00:00:55;17.70;99.90
12436;DHT22;6282;51.440;6.938;2022-08-21T00:03:22;17.70;99.90
12436;DHT22;6282;51.440;6.938;2022-08-21T00:05:50;17.70;99.90
12436;DHT22;6282;51.440;6.938;2022-08-21T00:08:18;17.70;99.90
12436;DHT22;6282;51.440;6.938;2022-08-21T00:10:45;17.60;99.90
12436;DHT22;6282;51.440;6.938;2022-08-21T00:13:13;17.70;99.90
12436;DHT22;6282;51.440;6.938;2022-08-21T00:15:40;17.60;99.90
12436;DHT22;6282;51.440;6.938;2022-08-21T00:18:10;17.70;99.90
12436;DHT22;6282;51.440;6.938;2022-08-21T00:20:38;17.80;99.90
12436;DHT22;6282;51.440;6.938;2022-08-21T00:23:05;17.80;99.90
12436;DHT22;6282;51.440;6.938;2022-08-21T00:25:32;17.70;99.90
12436;DHT22;6282;51.440;6.938;2022-08-21T00:27:59;17.60;99.90
12436;DHT22;6282;51.440;6.938;2022-08-21T00:30:27;17.60;99.90
12436;DHT22;6282;51.440;6.938;2022-08-21T00:32:55;17.70;99.90
12436;DHT22;6282;51.440;6.938;2022-08-21T00:35:27;17.60;99.90
12436;DHT22;6282;51.440;6.938;2022-08-21T00:37:54;17.50;99.90
12436;DHT22;6282;51.440;6.938;2022-08-21T00:43:07;17.30;99.90
12436;DHT22;6282;51.440;6.938;2022-08-21T00:45:35;17.40;99.90
12436;DHT22;6282;51.440;6.938;2022-08-21T00:48:02;17.30;99.90
12436;DHT22;6282;51.440;6.938;2022-08-21T00:50:33;17.20;99.90
12436;DHT22;6282;51.440;6.938;2022-08-21T00:53:02;17.20;99.90
12436;DHT22;6282;51.440;6.938;2022-08-21T00:55:29;17.10;99.90
12436;DHT22;6282;51.440;6.938;2022-08-21T00:57:57;17.10;99.90
12436;DHT22;6282;51.440;6.938;2022-08-21T01:00:28;17.10;99.90
12436;DHT22;6282;51.440;6.938;2022-08-21T01:02:56;17.10;99.90
12436;DHT22;6282;51.440;6.938;2022-08-21T01:05:23;17.10;99.90
12436;DHT22;6282;51.440;6.938;2022-08-21T01:07:52;16.90;99.90
12436;DHT22;6282;51.440;6.938;2022-08-21T01:10:19;16.80;99.90
12436;DHT22;6282;51.440;6.938;2022-08-21T01:12:46;16.80;99.90
12436;DHT22;6282;51.440;6.938;2022-08-21T01:15:14;16.70;99.90
12436;DHT22;6282;51.440;6.938;2022-08-21T01:17:41;16.70;99.90
12436;DHT22;6282;51.440;6.938;2022-08-21T01:20:10;16.60;99.90
12436;DHT22;6282;51.440;6.938;2022-08-21T01:22:39;16.50;99.90
12436;DHT22;6282;51.440;6.938;2022-08-21T01:25:08;16.60;99.90
12436;DHT22;6282;51.440;6.938;2022-08-21T01:27:35;16.40;99.90
12436;DHT22;6282;51.440;6.938;2022-08-21T01:30:08;16.50;99.90
12436;DHT22;6282;51.440;6.938;2022-08-21T01:32:36;16.50;99.90
12436;DHT22;6282;51.440;6.938;2022-08-21T01:35:05;16.40;99.90
12436;DHT22;6282;51.440;6.938;2022-08-21T01:37:32;16.40;99.90
12436;DHT22;6282;51.440;6.938;2022-08-21T01:40:00;16.30;99.90
12436;DHT22;6282;51.440;6.938;2022-08-21T01:42:27;16.40;99.90
12436;DHT22;6282;51.440;6.938;2022-08-21T01:44:54;16.40;99.90
12436;DHT22;6282;51.440;6.938;2022-08-21T01:47:22;16.20;99.90
12436;DHT22;6282;51.440;6.938;2022-08-21T01:49:49;16.20;99.90
12436;DHT22;6282;51.440;6.938;2022-08-21T01:52:16;16.10;99.90
12436;DHT22;6282;51.440;6.938;2022-08-21T01:54:43;16.10;99.90
12436;DHT22;6282;51.440;6.938;2022-08-21T01:57:12;16.00;99.90
12436;DHT22;6282;51.440;6.938;2022-08-21T01:59:39;16.00;99.90
12436;DHT22;6282;51.440;6.938;2022-08-21T02:02:06;16.00;99.90
12436;DHT22;6282;51.440;6.938;2022-08-21T02:04:33;15.90;99.90
12436;DHT22;6282;51.440;6.938;2022-08-21T02:07:01;16.00;99.90
12436;DHT22;6282;51.440;6.938;2022-08-21T02:09:28;16.10;99.90
12436;DHT22;6282;51.440;6.938;2022-08-21T02:11:55;15.90;99.90
12436;DHT22;6282;51.440;6.938;2022-08-21T02:14:23;15.90;99.90
12436;DHT22;6282;51.440;6.938;2022-08-21T02:16:50;15.90;99.90
12436;DHT22;6282;51.440;6.938;2022-08-21T02:19:17;16.00;99.90
12436;DHT22;6282;51.440;6.938;2022-08-21T02:21:44;15.80;99.90
12436;DHT22;6282;51.440;6.938;2022-08-21T02:24:12;15.80;99.90
12436;DHT22;6282;51.440;6.938;2022-08-21T02:26:38;15.80;99.90
12436;DHT22;6282;51.440;6.938;2022-08-21T02:29:06;15.70;99.90
12436;DHT22;6282;51.440;6.938;2022-08-21T02:31:34;15.80;99.90
12436;DHT22;6282;51.440;6.938;2022-08-21T02:34:01;15.80;99.90
12436;DHT22;6282;51.440;6.938;2022-08-21T02:36:28;15.80;99.90
12436;DHT22;6282;51.440;6.938;2022-08-21T02:38:55;15.80;99.90
12436;DHT22;6282;51.440;6.938;2022-08-21T02:41:23;15.70;99.90
12436;DHT22;6282;51.440;6.938;2022-08-21T02:43:50;15.80;99.90
12436;DHT22;6282;51.440;6.938;2022-08-21T02:46:18;15.70;99.90
12436;DHT22;6282;51.440;6.938;2022-08-21T02:48:47;15.80;99.90
12436;DHT22;6282;51.440;6.938;2022-08-21T02:51:16;15.70;99.90
12436;DHT22;6282;51.440;6.938;2022-08-21T02:53:44;15.70;99.90
12436;DHT22;6282;51.440;6.938;2022-08-21T02:56:14;15.60;99.90
12436;DHT22;6282;51.440;6.938;2022-08-21T02:58:44;15.70;99.90
12436;DHT22;6282;51.440;6.938;2022-08-21T03:01:11;15.60;99.90
12436;DHT22;6282;51.440;6.938;2022-08-21T03:03:41;15.70;99.90
12436;DHT22;6282;51.440;6.938;2022-08-21T03:06:12;15.70;99.90
12436;DHT22;6282;51.440;6.938;2022-08-21T03:08:45;15.70;99.90
12436;DHT22;6282;51.440;6.938;2022-08-21T03:11:13;15.70;99.90
12436;DHT22;6282;51.440;6.938;2022-08-21T03:13:40;15.70;99.90
12436;DHT22;6282;51.440;6.938;2022-08-21T03:16:07;15.60;99.90
12436;DHT22;6282;51.440;6.938;2022-08-21T03:18:34;15.60;99.90
12436;DHT22;6282;51.440;6.938;2022-08-21T03:21:02;15.60;99.90
12436;DHT22;6282;51.440;6.938;2022-08-21T03:23:30;15.60;99.90
12436;DHT22;6282;51.440;6.938;2022-08-21T03:25:58;15.60;99.90
12436;DHT22;6282;51.440;6.938;2022-08-21T03:28:25;15.70;99.90
12436;DHT22;6282;51.440;6.938;2022-08-21T03:30:53;15.80;99.90
12436;DHT22;6282;51.440;6.938;2022-08-21T03:33:20;15.70;99.90
12436;DHT22;6282;51.440;6.938;2022-08-21T03:35:56;15.70;99.90
12436;DHT22;6282;51.440;6.938;2022-08-21T03:38:23;15.70;99.90
12436;DHT22;6282;51.440;6.938;2022-08-21T03:40:52;15.70;99.90
12436;DHT22;6282;51.440;6.938;2022-08-21T03:43:19;15.90;99.90
12436;DHT22;6282;51.440;6.938;2022-08-21T03:45:46;16.20;99.90
12436;DHT22;6282;51.440;6.938;2022-08-21T03:48:13;16.10;99.90
12436;DHT22;6282;51.440;6.938;2022-08-21T03:50:42;15.90;99.90
12436;DHT22;6282;51.440;6.938;2022-08-21T03:53:11;15.90;99.90
12436;DHT22;6282;51.440;6.938;2022-08-21T03:55:38;15.90;99.90
12436;DHT22;6282;51.440;6.938;2022-08-21T03:58:07;15.90;99.90
12436;DHT22;6282;51.440;6.938;2022-08-21T04:00:34;15.90;99.90
12436;DHT22;6282;51.440;6.938;2022-08-21T04:03:01;15.80;99.90
12436;DHT22;6282;51.440;6.938;2022-08-21T04:05:28;15.80;99.90
12436;DHT22;6282;51.440;6.938;2022-08-21T04:07:57;15.70;99.90
12436;DHT22;6282;51.440;6.938;2022-08-21T04:10:25;15.80;99.90
12436;DHT22;6282;51.440;6.938;2022-08-21T04:12:53;15.80;99.90
12436;DHT22;6282;51.440;6.938;2022-08-21T04:15:23;15.70;99.90
12436;DHT22;6282;51.440;6.938;2022-08-21T04:17:51;15.60;99.90
12436;DHT22;6282;51.440;6.938;2022-08-21T04:20:18;15.70;99.90
12436;DHT22;6282;51.440;6.938;2022-08-21T04:22:47;15.70;99.90
12436;DHT22;6282;51.440;6.938;2022-08-21T04:25:16;15.70;99.90
12436;DHT22;6282;51.440;6.938;2022-08-21T04:27:44;15.70;99.90
12436;DHT22;6282;51.440;6.938;2022-08-21T04:30:13;15.70;99.90
12436;DHT22;6282;51.440;6.938;2022-08-21T04:32:44;15.60;99.90
12436;DHT22;6282;51.440;6.938;2022-08-21T04:35:13;15.60;99.90
12436;DHT22;6282;51.440;6.938;2022-08-21T04:37:40;15.60;99.90
12436;DHT22;6282;51.440;6.938;2022-08-21T04:40:08;15.60;99.90
12436;DHT22;6282;51.440;6.938;2022-08-21T04:42:41;15.80;99.90
12436;DHT22;6282;51.440;6.938;2022-08-21T04:45:13;15.70;99.90
12436;DHT22;6282;51.440;6.938;2022-08-21T04:47:40;15.60;99.90
12436;DHT22;6282;51.440;6.938;2022-08-21T04:50:09;15.60;99.90
12436;DHT22;6282;51.440;6.938;2022-08-21T04:52:36;15.50;99.90
12436;DHT22;6282;51.440;6.938;2022-08-21T04:55:03;15.50;99.90
12436;DHT22;6282;51.440;6.938;2022-08-21T04:57:30;15.50;99.90
12436;DHT22;6282;51.440;6.938;2022-08-21T04:59:57;15.50;99.90
12436;DHT22;6282;51.440;6.938;2022-08-21T05:02:24;15.60;99.90
12436;DHT22;6282;51.440;6.938;2022-08-21T05:04:53;15.50;99.90
12436;DHT22;6282;51.440;6.938;2022-08-21T05:07:23;15.60;99.90
12436;DHT22;6282;51.440;6.938;2022-08-21T05:09:53;15.50;99.90
12436;DHT22;6282;51.440;6.938;2022-08-21T05:12:21;15.50;99.90
12436;DHT22;6282;51.440;6.938;2022-08-21T05:14:48;15.50;99.90
12436;DHT22;6282;51.440;6.938;2022-08-21T05:17:15;15.60;99.90
12436;DHT22;6282;51.440;6.938;2022-08-21T05:19:42;15.60;99.90
12436;DHT22;6282;51.440;6.938;2022-08-21T05:22:09;15.60;99.90
12436;DHT22;6282;51.440;6.938;2022-08-21T05:24:37;15.70;99.90
12436;DHT22;6282;51.440;6.938;2022-08-21T05:27:04;15.70;99.90
12436;DHT22;6282;51.440;6.938;2022-08-21T05:29:32;15.80;99.90
12436;DHT22;6282;51.440;6.938;2022-08-21T05:31:59;15.80;99.90
12436;DHT22;6282;51.440;6.938;2022-08-21T05:34:26;15.80;99.90
12436;DHT22;6282;51.440;6.938;2022-08-21T05:36:53;15.80;99.90
12436;DHT22;6282;51.440;6.938;2022-08-21T05:39:20;15.90;99.90
12436;DHT22;6282;51.440;6.938;2022-08-21T05:41:48;16.00;99.90
12436;DHT22;6282;51.440;6.938;2022-08-21T05:44:15;16.00;99.90
12436;DHT22;6282;51.440;6.938;2022-08-21T05:46:42;16.10;99.90
12436;DHT22;6282;51.440;6.938;2022-08-21T05:49:09;16.10;99.90
12436;DHT22;6282;51.440;6.938;2022-08-21T05:51:38;16.20;99.90
12436;DHT22;6282;51.440;6.938;2022-08-21T05:54:06;16.20;99.90
12436;DHT22;6282;51.440;6.938;2022-08-21T05:56:33;16.20;99.90
12436;DHT22;6282;51.440;6.938;2022-08-21T05:59:01;16.20;99.90
12436;DHT22;6282;51.440;6.938;2022-08-21T06:01:28;16.30;99.90
12436;DHT22;6282;51.440;6.938;2022-08-21T06:03:55;16.40;99.90
12436;DHT22;6282;51.440;6.938;2022-08-21T06:06:22;16.40;99.90
12436;DHT22;6282;51.440;6.938;2022-08-21T06:08:49;16.40;99.90
12436;DHT22;6282;51.440;6.938;2022-08-21T06:11:15;16.50;99.90
12436;DHT22;6282;51.440;6.938;2022-08-21T06:13:42;16.50;99.90
12436;DHT22;6282;51.440;6.938;2022-08-21T06:16:13;16.60;99.90
12436;DHT22;6282;51.440;6.938;2022-08-21T06:18:40;16.70;99.90
12436;DHT22;6282;51.440;6.938;2022-08-21T06:21:08;16.70;99.90
12436;DHT22;6282;51.440;6.938;2022-08-21T06:23:37;16.80;99.90
12436;DHT22;6282;51.440;6.938;2022-08-21T06:26:05;16.90;99.90
12436;DHT22;6282;51.440;6.938;2022-08-21T06:28:33;16.80;99.90
12436;DHT22;6282;51.440;6.938;2022-08-21T06:31:00;16.90;99.90
12436;DHT22;6282;51.440;6.938;2022-08-21T06:33:29;16.90;99.90
12436;DHT22;6282;51.440;6.938;2022-08-21T06:35:56;17.10;99.90
12436;DHT22;6282;51.440;6.938;2022-08-21T06:38:22;17.20;99.90
12436;DHT22;6282;51.440;6.938;2022-08-21T06:40:49;17.20;99.90
12436;DHT22;6282;51.440;6.938;2022-08-21T06:43:16;17.30;99.90
12436;DHT22;6282;51.440;6.938;2022-08-21T06:45:50;17.20;99.90
12436;DHT22;6282;51.440;6.938;2022-08-21T06:48:17;17.40;99.90
12436;DHT22;6282;51.440;6.938;2022-08-21T06:50:46;17.50;99.90
12436;DHT22;6282;51.440;6.938;2022-08-21T06:53:14;17.60;99.90
12436;DHT22;6282;51.440;6.938;2022-08-21T06:55:42;17.70;99.90
12436;DHT22;6282;51.440;6.938;2022-08-21T06:58:10;17.90;99.90
12436;DHT22;6282;51.440;6.938;2022-08-21T07:00:39;17.80;99.90
12436;DHT22;6282;51.440;6.938;2022-08-21T07:03:06;17.90;99.90
12436;DHT22;6282;51.440;6.938;2022-08-21T07:05:33;18.40;99.90
12436;DHT22;6282;51.440;6.938;2022-08-21T07:08:02;20.40;1.00
12436;DHT22;6282;51.440;6.938;2022-08-21T07:10:29;21.50;1.00
12436;DHT22;6282;51.440;6.938;2022-08-21T07:12:56;22.00;99.90
12436;DHT22;6282;51.440;6.938;2022-08-21T07:15:23;22.90;1.00
12436;DHT22;6282;51.440;6.938;2022-08-21T07:17:50;23.10;99.90
12436;DHT22;6282;51.440;6.938;2022-08-21T07:20:17;22.90;59.20
12436;DHT22;6282;51.440;6.938;2022-08-21T07:22:43;22.90;1.00
12436;DHT22;6282;51.440;6.938;2022-08-21T07:25:12;23.30;1.00
12436;DHT22;6282;51.440;6.938;2022-08-21T07:27:39;23.10;99.90
12436;DHT22;6282;51.440;6.938;2022-08-21T07:30:07;22.50;99.90
12436;DHT22;6282;51.440;6.938;2022-08-21T07:32:34;22.10;99.90
12436;DHT22;6282;51.440;6.938;2022-08-21T07:35:00;22.90;21.60
12436;DHT22;6282;51.440;6.938;2022-08-21T07:37:27;23.60;1.00
12436;DHT22;6282;51.440;6.938;2022-08-21T07:39:54;24.00;1.00
12436;DHT22;6282;51.440;6.938;2022-08-21T07:42:23;24.50;1.00
12436;DHT22;6282;51.440;6.938;2022-08-21T07:44:50;25.10;99.90
12436;DHT22;6282;51.440;6.938;2022-08-21T07:47:17;24.20;99.90
12436;DHT22;6282;51.440;6.938;2022-08-21T07:49:44;23.20;99.90
12436;DHT22;6282;51.440;6.938;2022-08-21T07:52:13;22.30;99.90
12436;DHT22;6282;51.440;6.938;2022-08-21T07:54:40;23.00;99.90
12436;DHT22;6282;51.440;6.938;2022-08-21T07:57:07;23.40;99.90
12436;DHT22;6282;51.440;6.938;2022-08-21T07:59:35;23.00;99.90
12436;DHT22;6282;51.440;6.938;2022-08-21T08:02:07;23.20;58.40
12436;DHT22;6282;51.440;6.938;2022-08-21T08:04:34;23.80;1.00
12436;DHT22;6282;51.440;6.938;2022-08-21T08:07:01;24.10;1.00
12436;DHT22;6282;51.440;6.938;2022-08-21T08:09:28;24.60;1.00
12436;DHT22;6282;51.440;6.938;2022-08-21T08:11:57;24.50;1.00
12436;DHT22;6282;51.440;6.938;2022-08-21T08:14:24;24.60;1.00
12436;DHT22;6282;51.440;6.938;2022-08-21T08:16:52;24.20;1.00
12436;DHT22;6282;51.440;6.938;2022-08-21T08:19:19;23.50;1.00
12436;DHT22;6282;51.440;6.938;2022-08-21T08:21:45;23.80;1.00
12436;DHT22;6282;51.440;6.938;2022-08-21T08:24:18;24.40;1.00
12436;DHT22;6282;51.440;6.938;2022-08-21T08:26:45;24.70;1.00
12436;DHT22;6282;51.440;6.938;2022-08-21T08:29:12;24.20;1.00
12436;DHT22;6282;51.440;6.938;2022-08-21T08:31:40;25.10;1.00
12436;DHT22;6282;51.440;6.938;2022-08-21T08:34:08;25.00;99.90
12436;DHT22;6282;51.440;6.938;2022-08-21T08:36:36;25.40;99.90
12436;DHT22;6282;51.440;6.938;2022-08-21T08:39:04;25.50;99.90
12436;DHT22;6282;51.440;6.938;2022-08-21T08:41:33;25.90;99.90
12436;DHT22;6282;51.440;6.938;2022-08-21T08:44:04;25.90;99.90
12436;DHT22;6282;51.440;6.938;2022-08-21T08:46:38;25.90;99.90
12436;DHT22;6282;51.440;6.938;2022-08-21T08:49:29;26.30;99.90
12436;DHT22;6282;51.440;6.938;2022-08-21T08:52:00;26.20;99.90
12436;DHT22;6282;51.440;6.938;2022-08-21T08:54:32;25.60;99.90
12436;DHT22;6282;51.440;6.938;2022-08-21T08:57:03;24.80;99.90
12436;DHT22;6282;51.440;6.938;2022-08-21T08:59:39;25.40;99.90
12436;DHT22;6282;51.440;6.938;2022-08-21T09:02:09;25.60;99.90
12436;DHT22;6282;51.440;6.938;2022-08-21T09:04:39;25.80;99.90
12436;DHT22;6282;51.440;6.938;2022-08-21T09:07:12;25.40;99.90
12436;DHT22;6282;51.440;6.938;2022-08-21T09:09:51;25.40;99.90
12436;DHT22;6282;51.440;6.938;2022-08-21T09:12:31;25.70;99.90
12436;DHT22;6282;51.440;6.938;2022-08-21T09:15:06;26.50;99.90
12436;DHT22;6282;51.440;6.938;2022-08-21T09:17:41;26.00;99.90
12436;DHT22;6282;51.440;6.938;2022-08-21T09:20:25;24.90;98.40
12436;DHT22;6282;51.440;6.938;2022-08-21T09:23:04;24.70;94.90
12436;DHT22;6282;51.440;6.938;2022-08-21T09:25:42;24.50;99.90
12436;DHT22;6282;51.440;6.938;2022-08-21T09:28:12;25.00;87.80
12436;DHT22;6282;51.440;6.938;2022-08-21T09:30:40;25.50;81.40
12436;DHT22;6282;51.440;6.938;2022-08-21T09:33:09;25.40;49.10
12436;DHT22;6282;51.440;6.938;2022-08-21T09:35:48;25.00;42.40
12436;DHT22;6282;51.440;6.938;2022-08-21T09:38:25;24.80;39.00
12436;DHT22;6282;51.440;6.938;2022-08-21T09:40:58;25.00;49.00
12436;DHT22;6282;51.440;6.938;2022-08-21T09:43:27;24.90;31.10
12436;DHT22;6282;51.440;6.938;2022-08-21T09:46:08;25.00;19.90
12436;DHT22;6282;51.440;6.938;2022-08-21T09:48:42;24.80;21.10
12436;DHT22;6282;51.440;6.938;2022-08-21T09:51:13;24.80;11.70
12436;DHT22;6282;51.440;6.938;2022-08-21T09:53:46;24.80;5.60
12436;DHT22;6282;51.440;6.938;2022-08-21T09:56:20;24.40;15.80
12436;DHT22;6282;51.440;6.938;2022-08-21T09:59:13;24.00;23.90
12436;DHT22;6282;51.440;6.938;2022-08-21T10:01:43;24.60;30.30
12436;DHT22;6282;51.440;6.938;2022-08-21T10:04:11;23.90;22.20
12436;DHT22;6282;51.440;6.938;2022-08-21T10:06:39;23.20;19.30
12436;DHT22;6282;51.440;6.938;2022-08-21T10:09:09;23.40;18.20
12436;DHT22;6282;51.440;6.938;2022-08-21T10:11:37;23.70;4.10
12436;DHT22;6282;51.440;6.938;2022-08-21T10:14:17;23.40;1.00
12436;DHT22;6282;51.440;6.938;2022-08-21T10:16:57;23.50;1.00
12436;DHT22;6282;51.440;6.938;2022-08-21T10:19:32;23.80;1.00
12436;DHT22;6282;51.440;6.938;2022-08-21T10:22:12;23.30;1.00
12436;DHT22;6282;51.440;6.938;2022-08-21T10:24:49;23.70;8.80
12436;DHT22;6282;51.440;6.938;2022-08-21T10:27:32;24.00;1.00
12436;DHT22;6282;51.440;6.938;2022-08-21T10:30:05;24.10;1.00
12436;DHT22;6282;51.440;6.938;2022-08-21T10:32:47;24.10;1.00
12436;DHT22;6282;51.440;6.938;2022-08-21T10:35:22;24.10;1.00
12436;DHT22;6282;51.440;6.938;2022-08-21T10:38:02;23.90;1.00
12436;DHT22;6282;51.440;6.938;2022-08-21T10:40:40;24.00;1.00
12436;DHT22;6282;51.440;6.938;2022-08-21T10:43:18;24.00;1.00
12436;DHT22;6282;51.440;6.938;2022-08-21T10:45:53;23.70;1.00
12436;DHT22;6282;51.440;6.938;2022-08-21T10:48:27;23.80;1.00
12436;DHT22;6282;51.440;6.938;2022-08-21T10:50:59;23.90;1.00
12436;DHT22;6282;51.440;6.938;2022-08-21T10:53:40;24.10;1.00
12436;DHT22;6282;51.440;6.938;2022-08-21T10:56:15;24.10;1.00
12436;DHT22;6282;51.440;6.938;2022-08-21T10:58:48;23.90;1.00
12436;DHT22;6282;51.440;6.938;2022-08-21T11:01:22;23.60;1.00
12436;DHT22;6282;51.440;6.938;2022-08-21T11:03:58;23.50;1.00
12436;DHT22;6282;51.440;6.938;2022-08-21T11:06:32;23.90;1.00
12436;DHT22;6282;51.440;6.938;2022-08-21T11:09:11;24.10;1.00
12436;DHT22;6282;51.440;6.938;2022-08-21T11:11:41;24.00;1.00
12436;DHT22;6282;51.440;6.938;2022-08-21T11:14:16;24.60;1.00
12436;DHT22;6282;51.440;6.938;2022-08-21T11:16:46;24.60;1.00
12436;DHT22;6282;51.440;6.938;2022-08-21T11:19:19;24.00;1.00
12436;DHT22;6282;51.440;6.938;2022-08-21T11:21:58;24.30;1.00
12436;DHT22;6282;51.440;6.938;2022-08-21T11:24:35;24.20;1.00
12436;DHT22;6282;51.440;6.938;2022-08-21T11:27:19;24.10;1.00
12436;DHT22;6282;51.440;6.938;2022-08-21T11:29:49;23.90;1.00
12436;DHT22;6282;51.440;6.938;2022-08-21T11:32:33;23.80;1.00
12436;DHT22;6282;51.440;6.938;2022-08-21T11:35:13;23.60;1.00
12436;DHT22;6282;51.440;6.938;2022-08-21T11:37:53;24.00;1.00
12436;DHT22;6282;51.440;6.938;2022-08-21T11:40:38;24.00;1.00
12436;DHT22;6282;51.440;6.938;2022-08-21T11:43:11;24.60;1.00
12436;DHT22;6282;51.440;6.938;2022-08-21T11:45:43;24.40;1.00
12436;DHT22;6282;51.440;6.938;2022-08-21T11:48:16;24.40;1.00
12436;DHT22;6282;51.440;6.938;2022-08-21T11:50:48;24.50;1.00
12436;DHT22;6282;51.440;6.938;2022-08-21T11:53:19;24.50;1.00
12436;DHT22;6282;51.440;6.938;2022-08-21T11:55:53;24.50;1.00
12436;DHT22;6282;51.440;6.938;2022-08-21T11:58:25;24.50;1.00
12436;DHT22;6282;51.440;6.938;2022-08-21T12:00:56;24.70;1.00
12436;DHT22;6282;51.440;6.938;2022-08-21T12:03:27;23.80;1.00
12436;DHT22;6282;51.440;6.938;2022-08-21T12:05:58;24.10;1.00
12436;DHT22;6282;51.440;6.938;2022-08-21T12:08:28;24.10;1.00
12436;DHT22;6282;51.440;6.938;2022-08-21T12:11:03;24.40;1.00
12436;DHT22;6282;51.440;6.938;2022-08-21T12:13:32;24.60;1.00
12436;DHT22;6282;51.440;6.938;2022-08-21T12:16:07;24.10;1.00
12436;DHT22;6282;51.440;6.938;2022-08-21T12:18:34;24.00;1.00
12436;DHT22;6282;51.440;6.938;2022-08-21T12:21:16;24.10;1.00
12436;DHT22;6282;51.440;6.938;2022-08-21T12:23:46;24.60;1.00
12436;DHT22;6282;51.440;6.938;2022-08-21T12:26:24;24.70;1.00
12436;DHT22;6282;51.440;6.938;2022-08-21T12:29:04;24.70;1.00
12436;DHT22;6282;51.440;6.938;2022-08-21T12:31:31;24.40;1.00
12436;DHT22;6282;51.440;6.938;2022-08-21T12:34:06;24.20;1.00
12436;DHT22;6282;51.440;6.938;2022-08-21T12:36:43;24.50;1.00
12436;DHT22;6282;51.440;6.938;2022-08-21T12:39:14;24.60;1.00
12436;DHT22;6282;51.440;6.938;2022-08-21T12:41:49;25.00;1.00
12436;DHT22;6282;51.440;6.938;2022-08-21T12:44:21;25.20;1.00
12436;DHT22;6282;51.440;6.938;2022-08-21T12:46:51;24.80;1.00
12436;DHT22;6282;51.440;6.938;2022-08-21T12:49:26;24.60;1.00
12436;DHT22;6282;51.440;6.938;2022-08-21T12:51:57;24.30;1.00
12436;DHT22;6282;51.440;6.938;2022-08-21T12:54:30;24.50;1.00
12436;DHT22;6282;51.440;6.938;2022-08-21T12:57:01;24.80;1.00
12436;DHT22;6282;51.440;6.938;2022-08-21T12:59:29;24.50;1.00
12436;DHT22;6282;51.440;6.938;2022-08-21T13:01:59;24.40;1.00
12436;DHT22;6282;51.440;6.938;2022-08-21T13:04:35;24.40;1.00
12436;DHT22;6282;51.440;6.938;2022-08-21T13:07:07;24.90;1.00
12436;DHT22;6282;51.440;6.938;2022-08-21T13:09:41;25.40;1.00
12436;DHT22;6282;51.440;6.938;2022-08-21T13:12:11;25.80;1.00
12436;DHT22;6282;51.440;6.938;2022-08-21T13:14:41;25.50;1.00
12436;DHT22;6282;51.440;6.938;2022-08-21T13:17:10;25.50;1.00
12436;DHT22;6282;51.440;6.938;2022-08-21T13:19:38;25.60;1.00
12436;DHT22;6282;51.440;6.938;2022-08-21T13:22:12;25.00;1.00
12436;DHT22;6282;51.440;6.938;2022-08-21T13:24:39;24.90;1.00
12436;DHT22;6282;51.440;6.938;2022-08-21T13:27:22;25.30;1.00
12436;DHT22;6282;51.440;6.938;2022-08-21T13:30:01;25.60;1.00
12436;DHT22;6282;51.440;6.938;2022-08-21T13:32:31;25.00;1.00
12436;DHT22;6282;51.440;6.938;2022-08-21T13:35:08;25.30;1.00
12436;DHT22;6282;51.440;6.938;2022-08-21T13:37:36;25.40;1.00
12436;DHT22;6282;51.440;6.938;2022-08-21T13:40:09;25.30;1.00
12436;DHT22;6282;51.440;6.938;2022-08-21T13:42:39;25.10;1.00
12436;DHT22;6282;51.440;6.938;2022-08-21T13:45:12;25.50;1.00
12436;DHT22;6282;51.440;6.938;2022-08-21T13:47:41;25.70;1.00
12436;DHT22;6282;51.440;6.938;2022-08-21T13:50:11;25.60;1.00
12436;DHT22;6282;51.440;6.938;2022-08-21T13:52:48;25.50;1.00
12436;DHT22;6282;51.440;6.938;2022-08-21T13:55:16;25.80;1.00
12436;DHT22;6282;51.440;6.938;2022-08-21T13:57:45;26.00;1.00
12436;DHT22;6282;51.440;6.938;2022-08-21T14:00:15;25.90;1.00
12436;DHT22;6282;51.440;6.938;2022-08-21T14:02:44;25.40;1.00
12436;DHT22;6282;51.440;6.938;2022-08-21T14:05:19;25.60;1.00
12436;DHT22;6282;51.440;6.938;2022-08-21T14:07:48;25.70;1.00
12436;DHT22;6282;51.440;6.938;2022-08-21T14:10:18;25.30;1.00
12436;DHT22;6282;51.440;6.938;2022-08-21T14:12:50;25.20;1.00
12436;DHT22;6282;51.440;6.938;2022-08-21T14:15:24;25.30;1.00
12436;DHT22;6282;51.440;6.938;2022-08-21T14:17:54;25.40;1.00
12436;DHT22;6282;51.440;6.938;2022-08-21T14:20:29;25.00;1.00
12436;DHT22;6282;51.440;6.938;2022-08-21T14:22:56;24.80;1.00
12436;DHT22;6282;51.440;6.938;2022-08-21T14:25:36;24.80;1.00
12436;DHT22;6282;51.440;6.938;2022-08-21T14:28:20;25.30;1.00
12436;DHT22;6282;51.440;6.938;2022-08-21T14:30:58;25.20;1.00
12436;DHT22;6282;51.440;6.938;2022-08-21T14:33:40;25.20;1.00
12436;DHT22;6282;51.440;6.938;2022-08-21T14:36:07;25.10;1.00
12436;DHT22;6282;51.440;6.938;2022-08-21T14:38:36;25.00;1.00
12436;DHT22;6282;51.440;6.938;2022-08-21T14:41:11;25.30;1.00
12436;DHT22;6282;51.440;6.938;2022-08-21T14:43:42;25.60;1.00
12436;DHT22;6282;51.440;6.938;2022-08-21T14:46:11;26.00;1.00
12436;DHT22;6282;51.440;6.938;2022-08-21T14:48:38;26.40;1.00
12436;DHT22;6282;51.440;6.938;2022-08-21T14:51:05;27.40;1.00
12436;DHT22;6282;51.440;6.938;2022-08-21T14:53:33;27.00;1.00
12436;DHT22;6282;51.440;6.938;2022-08-21T14:56:00;27.20;1.00
12436;DHT22;6282;51.440;6.938;2022-08-21T14:58:34;27.30;1.00
12436;DHT22;6282;51.440;6.938;2022-08-21T15:01:03;26.70;1.00
12436;DHT22;6282;51.440;6.938;2022-08-21T15:03:31;26.50;1.00
12436;DHT22;6282;51.440;6.938;2022-08-21T15:05:58;26.50;1.00
12436;DHT22;6282;51.440;6.938;2022-08-21T15:08:25;26.30;1.00
12436;DHT22;6282;51.440;6.938;2022-08-21T15:10:52;26.20;1.00
12436;DHT22;6282;51.440;6.938;2022-08-21T15:13:20;25.90;1.00
12436;DHT22;6282;51.440;6.938;2022-08-21T15:15:48;25.50;1.00
12436;DHT22;6282;51.440;6.938;2022-08-21T15:18:39;25.60;1.00
12436;DHT22;6282;51.440;6.938;2022-08-21T15:21:07;25.80;1.00
12436;DHT22;6282;51.440;6.938;2022-08-21T15:23:37;26.10;1.00
12436;DHT22;6282;51.440;6.938;2022-08-21T15:26:04;26.10;1.00
12436;DHT22;6282;51.440;6.938;2022-08-21T15:28:34;26.00;1.00
12436;DHT22;6282;51.440;6.938;2022-08-21T15:31:04;25.50;1.00
12436;DHT22;6282;51.440;6.938;2022-08-21T15:33:32;25.60;1.00
12436;DHT22;6282;51.440;6.938;2022-08-21T15:36:01;25.40;1.00
12436;DHT22;6282;51.440;6.938;2022-08-21T15:38:28;25.30;1.00
12436;DHT22;6282;51.440;6.938;2022-08-21T15:40:55;25.60;1.00
12436;DHT22;6282;51.440;6.938;2022-08-21T15:43:24;25.60;1.00
12436;DHT22;6282;51.440;6.938;2022-08-21T15:45:53;25.40;1.00
12436;DHT22;6282;51.440;6.938;2022-08-21T15:48:21;25.30;1.00
12436;DHT22;6282;51.440;6.938;2022-08-21T15:50:50;25.20;1.00
12436;DHT22;6282;51.440;6.938;2022-08-21T15:53:18;25.50;1.00
12436;DHT22;6282;51.440;6.938;2022-08-21T15:55:45;25.50;1.00
12436;DHT22;6282;51.440;6.938;2022-08-21T15:58:14;25.40;1.00
12436;DHT22;6282;51.440;6.938;2022-08-21T16:00:43;25.20;1.00
12436;DHT22;6282;51.440;6.938;2022-08-21T16:03:16;25.20;1.00
12436;DHT22;6282;51.440;6.938;2022-08-21T16:05:46;25.00;1.00
12436;DHT22;6282;51.440;6.938;2022-08-21T16:08:15;25.20;1.00
12436;DHT22;6282;51.440;6.938;2022-08-21T16:10:42;25.10;1.00
12436;DHT22;6282;51.440;6.938;2022-08-21T16:13:16;25.00;1.00